Thursday, June 30, 2016
10:26 UTC
  |  Log In   |  Register Free
Airport Search:

Dawson Municipal Airport
(16J)

Dawson Municipal Airport Diagram
No Airport Diagram Available

FAA data valid effective May 26 2016 - Jul 21 2016 (unless otherwise noted).

 
 
 
 
 
 
 
 
 
 
 
 
 
 
Current Aviation Weather for 16J

Weather Summary


Current weather conditions are not available for 16J - The nearest NOAA weather station is at ABY, (17 nm SE from 16J)

The most recent METAR observation for 16J was updated at: 12:53 UTC
METAR for 16J is not available. Closest METAR is for KACJ 25.0 nm SW
KACJ  (25.0 nm SW)   (most recent observation was updated at 30:10 UTC)
301015Z AUTO 23003KT 7SM OVC003 22/22 A3000 RMK AO2 LTG DSNT S AND SW

KBIJ  (32.0 nm NE)   (most recent observation was updated at 30:10 UTC)
301015Z AUTO 00000KT 7SM CLR 24/22 A2997 RMK AO2 LTG DSNT S AND SW

TAF for 16J is not available.
KABY
300543Z 3006/0106 21006KT P6SM SCT060 BKN250 FM301900 21007KT P6SM VCTS BKN030CB OVC100 FM010000 19004KT P6SM SCT040 BKN100

GlobalAir.com is loading additional information.
 Current Weather at ABY
74.0 F° (23.3 C°)

North winds at 0.0 mph
Pressure:
29.97 in
Humidity:
94%
Wind:
North at 0.0 mph
Dew Point:
72.0 F° (22.2 C°)
Visibility:
7.00 mi
16J NOAA Radar




Find All Airport Services Find A Hotel Find A Rental Car Find A Golf Course Find A Restaurant $100 Hamburger



Airport Weather Forecast for 16J

Translated METAR for KABY (0953 UTC)
METAR:
KABY 300953Z AUTO 00000KT 8SM FEW004 23/22 A2998 RMK AO2 SLP150 T02330222
Conditions at:
KABY (Southwest Georgia Rgnl, GA) observed 0953 UTC 30 June 2016
Temperature:
23°C (73.4°F)
Dewpoint:
22°C (71.6°F) [RH = 94.1]
Pressure:
29.98 inches Hg (1015.2 mb)
pressure at sea level is 150 in Hg
Winds:
from the N (000 degrees) at 0 mph (0 knots: 0 m/s)
Visibility:
8 mile(s)
Ceiling:
at least 12,000 feet AGL
Clouds:
Few Clouds at 400 feet AGL
Remarks:
site is un-manned
site is automated and HAS a precipitation sensor

FBO's on the Field
FBO Company Facility Photos Services Transportation Aviation Fuel Prices: Prices include tax
Catering Weather Repair Courtesy Rental Type 100LL JetA JetA+ MOGAS 8087
 
Dawson/Terrell Co. Airport

This FBO has not yet been rated
FS:Independent
Last Updated: Jun-16
Login to update fuel prices
SS:
Contact Dawson/Terrell Co. AirportMore FBO Information
 
Add another FBO Facility Photos Catering Weather Repair Courtesy Rental Type 100LL JetA JetA+ MOGAS 8087
Services Transportation Aviation Fuel Prices: Prices include tax


model-print
model-print
model-print
model-print